createdAt,value
2023-01-12T00:03:32.326Z,11.11
2023-01-12T00:08:34.809Z,11.16
2023-01-12T00:13:36.332Z,11.18
2023-01-12T00:18:37.870Z,11.16
2023-01-12T00:23:39.445Z,10.94
2023-01-12T00:28:41.034Z,10.96
2023-01-12T00:33:43.209Z,10.89
2023-01-12T00:38:44.698Z,10.89
2023-01-12T00:43:46.307Z,10.88
2023-01-12T00:48:47.783Z,10.92
2023-01-12T00:53:49.281Z,10.82
2023-01-12T00:58:50.785Z,10.93
2023-01-12T01:03:52.343Z,10.88
2023-01-12T01:08:53.937Z,10.92
2023-01-12T01:13:55.468Z,10.70
2023-01-12T01:18:58.046Z,10.73
2023-01-12T01:24:00.205Z,10.80
2023-01-12T01:29:01.794Z,10.97
2023-01-12T01:34:03.503Z,10.92
2023-01-12T01:39:05.003Z,10.88
2023-01-12T01:44:29.275Z,10.89
2023-01-12T01:49:33.791Z,10.91
2023-01-12T01:54:43.428Z,10.87
2023-01-12T01:59:50.724Z,10.86
2023-01-12T02:04:55.657Z,10.81
2023-01-12T02:09:57.217Z,10.84
2023-01-12T02:14:58.821Z,10.93
2023-01-12T02:20:20.634Z,10.98
2023-01-12T02:25:25.108Z,11.04
2023-01-12T02:30:59.981Z,10.99
2023-01-12T02:36:16.476Z,10.99
2023-01-12T02:41:29.476Z,11.06
2023-01-12T02:46:31.938Z,11.08
2023-01-12T02:51:40.220Z,11.07
2023-01-12T02:56:46.052Z,11.13
2023-01-12T03:01:51.023Z,11.11
2023-01-12T03:06:55.591Z,11.14
2023-01-12T03:12:03.832Z,11.15
2023-01-12T03:17:13.483Z,11.03
2023-01-12T03:22:16.316Z,10.74
2023-01-12T03:27:51.007Z,10.62
2023-01-12T03:32:52.798Z,10.56
2023-01-12T03:37:58.601Z,10.55
2023-01-12T03:43:17.455Z,10.70
2023-01-12T03:48:26.447Z,10.59
2023-01-12T03:53:30.900Z,10.51
2023-01-12T03:58:34.159Z,10.55
2023-01-12T04:03:35.741Z,10.50
2023-01-12T04:08:37.405Z,10.39
2023-01-12T04:13:39.007Z,10.44
2023-01-12T04:18:40.500Z,10.56
2023-01-12T04:23:42.005Z,10.51
2023-01-12T04:28:43.565Z,10.47
2023-01-12T04:33:45.105Z,10.49
2023-01-12T04:38:46.626Z,10.69
2023-01-12T04:43:48.199Z,10.67
2023-01-12T04:48:49.692Z,10.67
2023-01-12T04:53:51.181Z,10.83
2023-01-12T04:58:57.396Z,10.94
2023-01-12T05:03:59.727Z,10.81
2023-01-12T05:09:01.267Z,10.60
2023-01-12T05:14:03.307Z,10.54
2023-01-12T05:19:04.806Z,10.44
2023-01-12T05:24:06.675Z,10.41
2023-01-12T05:29:08.443Z,10.37
2023-01-12T05:34:09.987Z,10.18
2023-01-12T05:39:11.560Z,10.11
2023-01-12T05:44:13.088Z,10.04
2023-01-12T05:49:14.588Z,9.93
2023-01-12T05:54:16.079Z,9.86
2023-01-12T05:59:17.736Z,9.80
2023-01-12T06:04:19.347Z,9.80
2023-01-12T06:09:20.906Z,9.75
2023-01-12T06:14:22.429Z,9.80
2023-01-12T06:19:23.945Z,9.87
2023-01-12T06:24:27.419Z,9.88
2023-01-12T06:29:28.964Z,9.85
2023-01-12T06:34:31.238Z,9.79
2023-01-12T06:39:33.054Z,9.78
2023-01-12T06:44:34.545Z,9.67
2023-01-12T06:49:36.140Z,9.90
2023-01-12T06:54:37.637Z,9.90
2023-01-12T06:59:39.168Z,9.83
2023-01-12T07:04:41.192Z,9.85
2023-01-12T07:09:42.756Z,9.83
2023-01-12T07:14:44.267Z,9.77
2023-01-12T07:19:45.758Z,9.79
2023-01-12T07:24:47.281Z,9.84
2023-01-12T07:29:48.783Z,9.85
2023-01-12T07:34:50.383Z,9.83
2023-01-12T07:39:51.898Z,9.99
2023-01-12T07:44:53.672Z,10.00
2023-01-12T07:49:55.205Z,10.11
2023-01-12T07:54:56.703Z,10.21
2023-01-12T07:59:58.272Z,10.25
2023-01-12T08:04:59.784Z,10.23
2023-01-12T08:10:01.295Z,10.43
2023-01-12T08:15:02.877Z,10.42
2023-01-12T08:20:10.678Z,10.45
2023-01-12T08:25:23.889Z,10.58
2023-01-12T08:30:26.522Z,10.57
2023-01-12T08:35:30.212Z,10.66
2023-01-12T08:40:31.708Z,10.68
2023-01-12T08:45:33.401Z,10.76
2023-01-12T08:50:34.932Z,10.74
2023-01-12T08:55:36.459Z,10.80
2023-01-12T09:00:40.967Z,10.94
2023-01-12T09:05:42.608Z,10.92
2023-01-12T09:10:44.100Z,10.99
2023-01-12T09:16:01.123Z,11.00
2023-01-12T09:21:09.492Z,11.06
2023-01-12T09:26:13.642Z,11.12
2023-01-12T09:31:20.677Z,11.22
2023-01-12T09:36:24.739Z,11.20
2023-01-12T09:41:38.675Z,11.23
2023-01-12T09:46:40.195Z,11.31
2023-01-12T09:51:51.172Z,11.29
2023-01-12T09:57:12.821Z,11.34
2023-01-12T10:02:16.528Z,11.41
2023-01-12T10:07:18.516Z,11.41
2023-01-12T10:12:30.568Z,11.46
2023-01-12T10:17:51.422Z,11.44
2023-01-12T10:23:10.058Z,11.48
2023-01-12T10:28:31.671Z,11.52
2023-01-12T10:33:34.160Z,11.60
2023-01-12T10:39:04.972Z,11.71
2023-01-12T10:44:13.990Z,11.77
2023-01-12T10:49:15.427Z,11.82
2023-01-12T10:54:23.788Z,11.87
2023-01-12T10:59:31.277Z,11.85
2023-01-12T11:04:41.900Z,11.89
2023-01-12T11:09:43.929Z,11.93
2023-01-12T11:14:59.028Z,12.04
2023-01-12T11:20:01.667Z,12.07
2023-01-12T11:25:18.567Z,12.11
2023-01-12T11:30:32.502Z,12.30
2023-01-12T11:35:44.528Z,12.52
2023-01-12T11:40:47.963Z,12.63
2023-01-12T11:45:56.930Z,12.60
2023-01-12T11:50:59.550Z,12.64
2023-01-12T11:56:23.484Z,12.59
2023-01-12T12:02:00.554Z,12.49
2023-01-12T12:07:31.162Z,12.35
2023-01-12T12:12:41.734Z,12.26
2023-01-12T12:18:20.618Z,12.44
2023-01-12T12:24:01.821Z,12.39
2023-01-12T12:29:11.747Z,12.26
2023-01-12T12:34:45.107Z,12.30
2023-01-12T12:40:15.258Z,12.21
2023-01-12T12:45:28.068Z,12.22
2023-01-12T12:50:29.588Z,12.23
2023-01-12T12:55:32.105Z,12.24
2023-01-12T13:00:37.892Z,12.19
2023-01-12T13:05:46.529Z,12.17
2023-01-12T13:10:51.481Z,12.20
2023-01-12T13:16:11.533Z,12.11
2023-01-12T13:21:51.801Z,12.05
2023-01-12T13:26:53.501Z,11.98
2023-01-12T13:31:59.718Z,11.92
2023-01-12T13:37:42.895Z,12.01
2023-01-12T13:42:48.016Z,12.12
2023-01-12T13:47:52.950Z,12.24
2023-01-12T13:53:03.201Z,12.20
2023-01-12T13:58:15.719Z,12.31
2023-01-12T14:03:35.451Z,12.23
2023-01-12T14:08:53.348Z,12.34
2023-01-12T14:14:23.865Z,12.44
2023-01-12T14:19:27.896Z,12.23
2023-01-12T14:24:29.566Z,11.96
2023-01-12T14:29:31.154Z,11.87
2023-01-12T14:34:37.212Z,11.84
2023-01-12T14:39:38.873Z,11.80
2023-01-12T14:44:50.493Z,11.78
2023-01-12T14:49:52.408Z,11.89
2023-01-12T14:54:55.222Z,11.88
2023-01-12T14:59:57.201Z,11.98
2023-01-12T15:05:06.566Z,12.01
2023-01-12T15:10:10.829Z,12.13
2023-01-12T15:15:21.587Z,12.36
2023-01-12T15:20:23.302Z,12.18
2023-01-12T15:25:24.989Z,12.27
2023-01-12T15:30:26.733Z,12.41
2023-01-12T15:35:28.723Z,12.69
2023-01-12T15:40:30.410Z,12.76
2023-01-12T15:45:33.476Z,12.83
2023-01-12T15:50:37.603Z,12.82
2023-01-12T15:55:39.186Z,12.91
2023-01-12T16:00:43.243Z,12.93
2023-01-12T16:05:46.618Z,12.84
2023-01-12T16:10:48.127Z,12.86
2023-01-12T16:15:49.710Z,12.97
2023-01-12T16:20:51.420Z,12.95
2023-01-12T16:26:00.196Z,12.94
2023-01-12T16:31:10.491Z,12.94
2023-01-12T16:36:13.980Z,13.01
2023-01-12T16:41:17.478Z,12.88
2023-01-12T16:46:19.045Z,12.90
2023-01-12T16:51:20.683Z,12.93
2023-01-12T16:56:22.416Z,12.95
2023-01-12T17:01:24.488Z,13.02
2023-01-12T17:06:28.107Z,13.05
2023-01-12T17:11:29.837Z,13.09
2023-01-12T17:16:31.482Z,13.15
2023-01-12T17:21:33.418Z,13.15
2023-01-12T17:26:35.122Z,13.29
2023-01-12T17:31:38.487Z,13.19
2023-01-12T17:36:40.634Z,13.20
2023-01-12T17:41:42.608Z,13.21
2023-01-12T17:46:44.867Z,13.14
2023-01-12T17:51:46.492Z,12.97
2023-01-12T17:56:48.056Z,12.79
2023-01-12T18:01:50.259Z,12.94
2023-01-12T18:06:52.001Z,12.78
2023-01-12T18:11:53.598Z,12.38
2023-01-12T18:16:55.153Z,12.11
2023-01-12T18:21:57.035Z,12.08
2023-01-12T18:26:58.857Z,12.13
2023-01-12T18:32:00.678Z,12.14
2023-01-12T18:37:02.225Z,12.24
2023-01-12T18:42:03.903Z,12.26
2023-01-12T18:47:05.894Z,12.45
2023-01-12T18:52:11.338Z,12.60
2023-01-12T18:57:13.149Z,12.83
2023-01-12T19:02:16.144Z,12.82
2023-01-12T19:07:23.676Z,12.95
2023-01-12T19:12:25.760Z,12.99
2023-01-12T19:17:27.339Z,12.98
2023-01-12T19:22:29.079Z,12.92
2023-01-12T19:27:31.159Z,13.03
2023-01-12T19:32:32.772Z,12.97
2023-01-12T19:37:34.473Z,13.11
2023-01-12T19:42:36.120Z,13.00
2023-01-12T19:47:37.976Z,12.89
2023-01-12T19:52:41.826Z,12.54
2023-01-12T19:57:43.418Z,12.32
2023-01-12T20:02:45.348Z,12.09
2023-01-12T20:07:46.982Z,12.09
2023-01-12T20:12:49.305Z,12.17
2023-01-12T20:17:51.400Z,12.21
2023-01-12T20:22:53.652Z,12.23
2023-01-12T20:27:55.508Z,12.24
2023-01-12T20:32:57.032Z,12.23
2023-01-12T20:37:58.569Z,12.52
2023-01-12T20:43:00.413Z,12.56
2023-01-12T20:48:02.006Z,12.70
2023-01-12T20:53:03.612Z,12.78
2023-01-12T20:58:05.255Z,12.88
2023-01-12T21:03:07.259Z,12.88
2023-01-12T21:08:08.982Z,12.87
2023-01-12T21:13:10.494Z,12.95
2023-01-12T21:18:12.237Z,13.02
2023-01-12T21:23:13.865Z,13.11
2023-01-12T21:28:15.442Z,12.93
2023-01-12T21:33:17.774Z,12.90
2023-01-12T21:38:19.354Z,12.85
2023-01-12T21:43:21.605Z,12.56
2023-01-12T21:48:24.078Z,12.38
2023-01-12T21:53:25.607Z,12.34
2023-01-12T21:58:29.813Z,12.14
2023-01-12T22:03:31.336Z,11.94
2023-01-12T22:08:34.759Z,11.91
2023-01-12T22:13:37.027Z,11.96
2023-01-12T22:18:42.703Z,12.08
2023-01-12T22:23:44.271Z,12.11
2023-01-12T22:28:47.034Z,12.19
2023-01-12T22:33:51.029Z,12.01
2023-01-12T22:38:52.540Z,12.05
2023-01-12T22:43:55.217Z,12.07
2023-01-12T22:48:58.070Z,12.07
2023-01-12T22:53:59.670Z,12.22
2023-01-12T22:59:01.292Z,12.22
2023-01-12T23:04:02.849Z,12.32
2023-01-12T23:09:04.373Z,12.55
2023-01-12T23:14:05.891Z,12.63
2023-01-12T23:19:07.425Z,12.68
2023-01-12T23:24:08.942Z,12.70
2023-01-12T23:29:10.421Z,12.75
2023-01-12T23:34:11.944Z,12.66
2023-01-12T23:39:13.437Z,12.71
2023-01-12T23:44:14.946Z,12.72
2023-01-12T23:49:16.534Z,12.78
2023-01-12T23:54:18.155Z,12.83
2023-01-12T23:59:19.705Z,12.74
